createdAt,value
2022-08-21T00:00:23.267Z,23.10
2022-08-21T00:02:55.404Z,23.10
2022-08-21T00:05:23.923Z,23.00
2022-08-21T00:07:51.051Z,23.00
2022-08-21T00:10:19.094Z,23.00
2022-08-21T00:12:47.126Z,23.00
2022-08-21T00:15:19.823Z,23.00
2022-08-21T00:17:47.518Z,23.00
2022-08-21T00:20:15.748Z,23.00
2022-08-21T00:22:43.034Z,23.00
2022-08-21T00:25:10.914Z,23.00
2022-08-21T00:27:40.325Z,22.90
2022-08-21T00:30:08.597Z,22.90
2022-08-21T00:32:38.718Z,22.90
2022-08-21T00:35:14.129Z,22.90
2022-08-21T00:37:42.360Z,22.90
2022-08-21T00:40:12.914Z,22.90
2022-08-21T00:42:40.852Z,22.90
2022-08-21T00:45:08.878Z,22.90
2022-08-21T00:47:36.048Z,22.90
2022-08-21T00:50:05.774Z,22.80
2022-08-21T00:52:35.004Z,22.80
2022-08-21T00:55:02.893Z,22.80
2022-08-21T00:57:34.340Z,22.80
2022-08-21T01:00:05.090Z,22.80
2022-08-21T01:02:32.599Z,22.80
2022-08-21T01:04:59.594Z,22.80
2022-08-21T01:07:27.700Z,22.80
2022-08-21T01:09:54.805Z,22.70
2022-08-21T01:12:22.385Z,22.80
2022-08-21T01:14:49.486Z,22.70
2022-08-21T01:17:17.618Z,22.70
2022-08-21T01:19:44.858Z,22.70
2022-08-21T01:22:11.906Z,22.70
2022-08-21T01:24:39.034Z,22.70
2022-08-21T01:27:06.528Z,22.70
2022-08-21T01:30:10.916Z,22.70
2022-08-21T01:32:37.941Z,22.70
2022-08-21T01:35:06.618Z,22.60
2022-08-21T01:37:34.064Z,22.60
2022-08-21T01:40:01.674Z,22.60
2022-08-21T01:42:28.652Z,22.60
2022-08-21T01:44:56.301Z,22.60
2022-08-21T01:47:25.139Z,22.60
2022-08-21T01:49:52.971Z,22.60
2022-08-21T01:52:20.317Z,22.60
2022-08-21T01:54:47.370Z,22.50
2022-08-21T01:57:22.873Z,22.50
2022-08-21T01:59:54.001Z,22.50
2022-08-21T02:02:21.034Z,22.50
2022-08-21T02:04:47.965Z,22.50
2022-08-21T02:07:16.160Z,22.50
2022-08-21T02:10:01.802Z,22.50
2022-08-21T02:12:28.972Z,22.50
2022-08-21T02:14:55.892Z,22.50
2022-08-21T02:17:23.594Z,22.50
2022-08-21T02:19:50.809Z,22.50
2022-08-21T02:22:17.879Z,22.40
2022-08-21T02:24:54.275Z,22.40
2022-08-21T02:27:26.818Z,22.40
2022-08-21T02:29:58.303Z,22.40
2022-08-21T02:32:26.834Z,22.40
2022-08-21T02:34:54.376Z,22.40
2022-08-21T02:37:21.854Z,22.40
2022-08-21T02:39:49.073Z,22.40
2022-08-21T02:42:16.305Z,22.40
2022-08-21T02:44:43.390Z,22.40
2022-08-21T02:47:10.332Z,22.40
2022-08-21T02:49:40.353Z,22.40
2022-08-21T02:52:07.302Z,22.30
2022-08-21T02:54:34.281Z,22.30
2022-08-21T02:57:01.398Z,22.30
2022-08-21T02:59:28.454Z,22.30
2022-08-21T03:01:56.896Z,22.30
2022-08-21T03:04:24.197Z,22.30
2022-08-21T03:06:51.242Z,22.30
2022-08-21T03:09:18.382Z,22.30
2022-08-21T03:11:45.320Z,22.30
2022-08-21T03:14:12.247Z,22.30
2022-08-21T03:16:39.243Z,22.30
2022-08-21T03:19:07.290Z,22.20
2022-08-21T03:21:34.530Z,22.30
2022-08-21T03:24:04.172Z,22.20
2022-08-21T03:26:32.107Z,22.20
2022-08-21T03:28:59.562Z,22.30
2022-08-21T03:31:31.719Z,22.20
2022-08-21T03:33:59.691Z,22.20
2022-08-21T03:36:26.687Z,22.20
2022-08-21T03:38:54.634Z,22.20
2022-08-21T03:41:21.781Z,22.20
2022-08-21T03:43:48.804Z,22.20
2022-08-21T03:46:15.773Z,22.20
2022-08-21T03:48:42.833Z,22.20
2022-08-21T03:51:09.920Z,22.10
2022-08-21T03:53:37.439Z,22.10
2022-08-21T03:56:07.724Z,22.10
2022-08-21T03:58:35.944Z,22.10
2022-08-21T04:01:05.519Z,22.10
2022-08-21T04:03:32.639Z,22.10
2022-08-21T04:06:00.096Z,22.10
2022-08-21T04:08:28.186Z,22.10
2022-08-21T04:10:57.709Z,22.10
2022-08-21T04:13:25.105Z,22.10
2022-08-21T04:15:52.172Z,22.00
2022-08-21T04:18:20.247Z,22.00
2022-08-21T04:20:50.717Z,22.00
2022-08-21T04:23:24.013Z,22.00
2022-08-21T04:25:52.786Z,22.00
2022-08-21T04:28:19.898Z,22.00
2022-08-21T04:30:47.447Z,22.00
2022-08-21T04:33:14.879Z,22.00
2022-08-21T04:35:43.037Z,22.00
2022-08-21T04:38:11.625Z,21.90
2022-08-21T04:40:38.877Z,22.00
2022-08-21T04:43:08.621Z,21.90
2022-08-21T04:45:41.180Z,22.00
2022-08-21T04:48:13.869Z,21.90
2022-08-21T04:51:01.483Z,21.90
2022-08-21T04:53:31.638Z,21.90
2022-08-21T04:56:03.137Z,21.90
2022-08-21T04:58:31.884Z,21.90
2022-08-21T05:00:59.825Z,21.90
2022-08-21T05:03:27.279Z,21.90
2022-08-21T05:05:54.436Z,21.90
2022-08-21T05:08:24.184Z,21.90
2022-08-21T05:10:51.486Z,21.90
2022-08-21T05:13:19.115Z,21.90
2022-08-21T05:15:46.086Z,21.90
2022-08-21T05:18:13.480Z,21.90
2022-08-21T05:20:40.536Z,21.90
2022-08-21T05:23:12.422Z,21.90
2022-08-21T05:25:39.529Z,21.80
2022-08-21T05:28:07.406Z,21.80
2022-08-21T05:30:35.765Z,21.90
2022-08-21T05:33:05.036Z,21.90
2022-08-21T05:35:36.245Z,21.90
2022-08-21T05:38:04.935Z,21.80
2022-08-21T05:40:32.458Z,21.90
2022-08-21T05:43:00.220Z,21.90
2022-08-21T05:45:42.883Z,21.90
2022-08-21T05:48:22.251Z,21.90
2022-08-21T05:50:50.824Z,21.90
2022-08-21T05:53:19.812Z,21.80
2022-08-21T05:55:48.035Z,21.90
2022-08-21T05:58:17.174Z,21.90
2022-08-21T06:00:45.343Z,21.90
2022-08-21T06:03:18.930Z,21.90
2022-08-21T06:05:46.728Z,21.90
2022-08-21T06:08:14.897Z,21.90
2022-08-21T06:10:42.354Z,21.80
2022-08-21T06:13:10.121Z,21.90
2022-08-21T06:15:37.210Z,21.90
2022-08-21T06:18:04.279Z,21.90
2022-08-21T06:20:31.333Z,21.90
2022-08-21T06:22:58.702Z,21.90
2022-08-21T06:25:25.772Z,21.90
2022-08-21T06:27:52.932Z,21.90
2022-08-21T06:30:20.178Z,21.90
2022-08-21T06:32:47.195Z,21.90
2022-08-21T06:35:14.419Z,22.00
2022-08-21T06:37:41.418Z,22.00
2022-08-21T06:40:12.626Z,22.00
2022-08-21T06:42:41.277Z,22.00
2022-08-21T06:45:09.094Z,22.00
2022-08-21T06:47:36.112Z,22.10
2022-08-21T06:50:03.714Z,22.10
2022-08-21T06:52:30.653Z,22.10
2022-08-21T06:54:57.657Z,22.10
2022-08-21T06:57:26.173Z,22.20
2022-08-21T06:59:53.114Z,22.20
2022-08-21T07:02:20.324Z,22.20
2022-08-21T07:04:47.221Z,22.20
2022-08-21T07:07:14.472Z,22.20
2022-08-21T07:09:41.562Z,22.20
2022-08-21T07:12:08.767Z,22.20
2022-08-21T07:14:35.883Z,22.20
2022-08-21T07:17:03.083Z,22.30
2022-08-21T07:19:30.002Z,22.30
2022-08-21T07:22:00.753Z,22.30
2022-08-21T07:24:27.796Z,22.30
2022-08-21T07:26:56.485Z,22.30
2022-08-21T07:29:23.595Z,22.30
2022-08-21T07:31:50.769Z,22.40
2022-08-21T07:34:17.717Z,22.40
2022-08-21T07:36:44.706Z,22.40
2022-08-21T07:39:11.692Z,22.40
2022-08-21T07:41:38.630Z,22.40
2022-08-21T07:44:06.549Z,22.40
2022-08-21T07:46:33.710Z,22.50
2022-08-21T07:49:01.720Z,22.50
2022-08-21T07:51:30.028Z,22.50
2022-08-21T07:54:00.226Z,22.50
2022-08-21T07:56:28.717Z,22.50
2022-08-21T07:58:56.784Z,22.50
2022-08-21T08:01:24.239Z,22.60
2022-08-21T08:03:51.660Z,22.60
2022-08-21T08:06:19.800Z,22.60
2022-08-21T08:08:47.492Z,22.60
2022-08-21T08:11:16.307Z,22.60
2022-08-21T08:13:49.531Z,22.60
2022-08-21T08:16:17.175Z,22.60
2022-08-21T08:18:45.353Z,22.70
2022-08-21T08:21:13.669Z,22.70
2022-08-21T08:23:40.739Z,22.70
2022-08-21T08:26:08.102Z,22.70
2022-08-21T08:28:54.169Z,22.70
2022-08-21T08:31:21.218Z,22.80
2022-08-21T08:33:48.096Z,22.80
2022-08-21T08:36:17.131Z,22.80
2022-08-21T08:38:45.449Z,22.80
2022-08-21T08:41:16.688Z,22.90
2022-08-21T08:43:54.072Z,22.90
2022-08-21T08:46:30.479Z,23.00
2022-08-21T08:49:04.393Z,23.00
2022-08-21T08:52:14.888Z,23.10
2022-08-21T08:54:59.094Z,23.10
2022-08-21T08:57:26.436Z,23.20
2022-08-21T08:59:57.177Z,23.20
2022-08-21T09:02:24.911Z,23.30
2022-08-21T09:04:54.846Z,23.30
2022-08-21T09:07:24.924Z,23.30
2022-08-21T09:10:22.116Z,23.30
2022-08-21T09:13:10.991Z,23.40
2022-08-21T09:15:55.326Z,23.40
2022-08-21T09:19:24.980Z,23.40
2022-08-21T09:22:31.314Z,23.40
2022-08-21T09:25:21.154Z,23.40
2022-08-21T09:27:51.607Z,23.40
2022-08-21T09:30:22.550Z,23.30
2022-08-21T09:32:49.569Z,23.30
2022-08-21T09:35:23.835Z,23.30
2022-08-21T09:37:59.246Z,23.30
2022-08-21T09:40:38.461Z,23.40
2022-08-21T09:43:28.753Z,23.40
2022-08-21T09:46:06.316Z,23.40
2022-08-21T09:48:45.000Z,23.40
2022-08-21T09:51:21.770Z,23.40
2022-08-21T09:54:15.276Z,23.40
2022-08-21T09:57:24.827Z,23.50
2022-08-21T09:59:52.167Z,23.50
2022-08-21T10:02:30.369Z,23.60
2022-08-21T10:05:01.582Z,23.60
2022-08-21T10:07:31.598Z,23.60
2022-08-21T10:10:10.648Z,23.60
2022-08-21T10:12:40.861Z,23.70
2022-08-21T10:15:08.867Z,23.70
2022-08-21T10:18:17.920Z,23.80
2022-08-21T10:20:59.618Z,23.80
2022-08-21T10:23:36.892Z,23.80
2022-08-21T10:26:14.027Z,23.90
2022-08-21T10:28:48.931Z,23.90
2022-08-21T10:31:34.179Z,24.00
2022-08-21T10:34:24.956Z,24.10
2022-08-21T10:36:58.054Z,24.20
2022-08-21T10:39:36.314Z,24.20
2022-08-21T10:42:44.587Z,24.30
2022-08-21T10:45:39.348Z,24.30
2022-08-21T10:48:09.063Z,24.30
2022-08-21T10:50:51.601Z,24.40
2022-08-21T10:53:41.527Z,24.50
2022-08-21T10:56:29.754Z,24.60
2022-08-21T10:59:20.895Z,24.60
2022-08-21T11:01:54.128Z,24.70
2022-08-21T11:04:34.132Z,24.60
2022-08-21T11:07:43.696Z,24.70
2022-08-21T11:10:25.691Z,24.70
2022-08-21T11:13:08.276Z,24.60
2022-08-21T11:15:45.861Z,24.60
2022-08-21T11:18:24.940Z,24.60
2022-08-21T11:21:29.694Z,24.50
2022-08-21T11:24:11.836Z,24.40
2022-08-21T11:26:52.327Z,24.40
2022-08-21T11:29:27.756Z,24.30
2022-08-21T11:32:13.070Z,24.30
2022-08-21T11:35:07.083Z,24.30
2022-08-21T11:37:55.030Z,24.30
2022-08-21T11:40:39.772Z,24.30
2022-08-21T11:43:35.992Z,24.20
2022-08-21T11:46:17.972Z,24.30
2022-08-21T11:48:59.859Z,24.30
2022-08-21T11:51:46.933Z,24.30
2022-08-21T11:54:36.546Z,24.40
2022-08-21T11:57:23.887Z,24.40
2022-08-21T12:00:10.192Z,24.40
2022-08-21T12:02:50.855Z,24.40
2022-08-21T12:05:37.229Z,24.40
2022-08-21T12:08:10.726Z,24.50
2022-08-21T12:10:42.169Z,24.50
2022-08-21T12:13:15.003Z,24.50
2022-08-21T12:15:42.037Z,24.50
2022-08-21T12:18:44.744Z,24.50
2022-08-21T12:21:23.016Z,24.50
2022-08-21T12:24:13.812Z,24.60
2022-08-21T12:27:02.259Z,24.50
2022-08-21T12:29:38.578Z,24.50
2022-08-21T12:32:11.416Z,24.50
2022-08-21T12:34:47.642Z,24.50
2022-08-21T12:37:37.717Z,24.50
2022-08-21T12:40:11.464Z,24.50
2022-08-21T12:42:43.211Z,24.50
2022-08-21T12:45:34.797Z,24.50
2022-08-21T12:48:26.345Z,24.60
2022-08-21T12:51:26.773Z,24.60
2022-08-21T12:53:57.010Z,24.70
2022-08-21T12:56:27.102Z,24.70
2022-08-21T12:59:14.584Z,24.80
2022-08-21T13:01:49.677Z,24.80
2022-08-21T13:04:26.344Z,24.90
2022-08-21T13:06:55.538Z,24.90
2022-08-21T13:09:29.049Z,25.00
2022-08-21T13:11:56.862Z,25.10
2022-08-21T13:14:46.168Z,25.30
2022-08-21T13:17:23.386Z,25.50
2022-08-21T13:20:02.172Z,25.50
2022-08-21T13:22:33.485Z,25.60
2022-08-21T13:25:06.850Z,25.80
2022-08-21T13:27:35.444Z,26.00
2022-08-21T13:30:10.930Z,26.00
2022-08-21T13:32:44.122Z,26.00
2022-08-21T13:35:15.407Z,26.00
2022-08-21T13:37:44.145Z,26.00
2022-08-21T13:40:17.369Z,25.90
2022-08-21T13:42:46.815Z,26.00
2022-08-21T13:45:32.316Z,26.00
2022-08-21T13:48:06.001Z,26.00
2022-08-21T13:50:36.116Z,26.00
2022-08-21T13:53:08.744Z,26.00
2022-08-21T13:55:39.890Z,26.00
2022-08-21T13:58:08.082Z,26.00
2022-08-21T14:00:44.453Z,26.00
2022-08-21T14:03:13.898Z,26.10
2022-08-21T14:05:46.872Z,26.10
2022-08-21T14:08:21.454Z,26.20
2022-08-21T14:10:58.074Z,26.20
2022-08-21T14:13:35.084Z,26.20
2022-08-21T14:16:16.508Z,26.30
2022-08-21T14:18:50.716Z,26.40
2022-08-21T14:21:31.117Z,26.50
2022-08-21T14:24:13.659Z,26.50
2022-08-21T14:26:55.425Z,26.50
2022-08-21T14:29:27.533Z,26.50
2022-08-21T14:32:21.686Z,26.60
2022-08-21T14:34:54.548Z,26.70
2022-08-21T14:37:23.081Z,26.70
2022-08-21T14:39:50.364Z,26.80
2022-08-21T14:42:17.431Z,26.80
2022-08-21T14:44:44.613Z,26.80
2022-08-21T14:47:11.991Z,26.80
2022-08-21T14:49:48.873Z,26.80
2022-08-21T14:52:16.593Z,26.90
2022-08-21T14:54:43.574Z,26.90
2022-08-21T14:57:13.229Z,26.90
2022-08-21T14:59:40.890Z,27.00
2022-08-21T15:02:09.560Z,26.90
2022-08-21T15:04:36.660Z,26.90
2022-08-21T15:07:04.266Z,26.90
2022-08-21T15:09:31.419Z,26.90
2022-08-21T15:12:01.340Z,26.90
2022-08-21T15:14:31.837Z,26.90
2022-08-21T15:16:59.047Z,26.90
2022-08-21T15:19:26.608Z,26.90
2022-08-21T15:21:53.997Z,26.80
2022-08-21T15:24:21.046Z,26.80
2022-08-21T15:26:48.635Z,26.80
2022-08-21T15:29:22.502Z,26.80
2022-08-21T15:31:58.529Z,26.70
2022-08-21T15:34:30.909Z,26.70
2022-08-21T15:36:59.343Z,26.60
2022-08-21T15:39:30.320Z,26.60
2022-08-21T15:41:59.153Z,26.60
2022-08-21T15:44:28.434Z,26.50
2022-08-21T15:46:56.506Z,26.50
2022-08-21T15:49:23.956Z,26.50
2022-08-21T15:51:51.093Z,26.50
2022-08-21T15:54:18.234Z,26.50
2022-08-21T15:56:48.965Z,26.50
2022-08-21T15:59:20.729Z,26.50
2022-08-21T16:01:48.261Z,26.40
2022-08-21T16:04:23.325Z,26.40
2022-08-21T16:06:55.593Z,26.40
2022-08-21T16:09:23.466Z,26.40
2022-08-21T16:11:50.631Z,26.40
2022-08-21T16:14:18.550Z,26.40
2022-08-21T16:16:46.562Z,26.40
2022-08-21T16:19:15.012Z,26.40
2022-08-21T16:21:42.272Z,26.30
2022-08-21T16:24:09.285Z,26.30
2022-08-21T16:26:36.349Z,26.30
2022-08-21T16:29:04.335Z,26.30
2022-08-21T16:31:32.899Z,26.20
2022-08-21T16:34:00.633Z,26.20
2022-08-21T16:36:27.862Z,26.20
2022-08-21T16:38:56.441Z,26.20
2022-08-21T16:41:27.268Z,26.20
2022-08-21T16:43:54.430Z,26.20
2022-08-21T16:46:22.605Z,26.20
2022-08-21T16:48:50.717Z,26.10
2022-08-21T16:51:17.889Z,26.10
2022-08-21T16:53:45.217Z,26.10
2022-08-21T16:56:15.172Z,26.10
2022-08-21T16:58:47.538Z,26.10
2022-08-21T17:01:19.774Z,26.00
2022-08-21T17:03:51.092Z,26.00
2022-08-21T17:06:18.954Z,26.00
2022-08-21T17:08:46.498Z,26.00
2022-08-21T17:11:36.665Z,26.00
2022-08-21T17:14:15.004Z,26.00
2022-08-21T17:16:46.075Z,26.00
2022-08-21T17:19:13.936Z,26.00
2022-08-21T17:21:41.149Z,26.00
2022-08-21T17:24:08.217Z,26.00
2022-08-21T17:26:35.586Z,25.90
2022-08-21T17:29:04.468Z,25.90
2022-08-21T17:31:32.770Z,25.90
2022-08-21T17:34:00.346Z,25.90
2022-08-21T17:36:29.658Z,25.90
2022-08-21T17:38:58.420Z,25.90
2022-08-21T17:41:26.859Z,25.90
2022-08-21T17:43:55.109Z,25.80
2022-08-21T17:46:28.864Z,25.80
2022-08-21T17:48:57.239Z,25.80
2022-08-21T17:51:24.678Z,25.80
2022-08-21T17:53:51.693Z,25.80
2022-08-21T17:56:20.079Z,25.80
2022-08-21T17:58:52.103Z,25.80
2022-08-21T18:01:20.293Z,25.70
2022-08-21T18:03:48.459Z,25.70
2022-08-21T18:06:17.966Z,25.70
2022-08-21T18:08:46.069Z,25.70
2022-08-21T18:11:23.165Z,25.70
2022-08-21T18:13:54.022Z,25.70
2022-08-21T18:16:22.185Z,25.60
2022-08-21T18:18:51.519Z,25.60
2022-08-21T18:21:18.967Z,25.70
2022-08-21T18:23:46.099Z,25.60
2022-08-21T18:26:26.023Z,25.60
2022-08-21T18:28:53.558Z,25.60
2022-08-21T18:31:21.657Z,25.60
2022-08-21T18:33:58.364Z,25.50
2022-08-21T18:36:27.143Z,25.50
2022-08-21T18:39:04.413Z,25.50
2022-08-21T18:41:41.440Z,25.50
2022-08-21T18:44:08.793Z,25.50
2022-08-21T18:46:35.915Z,25.50
2022-08-21T18:49:03.515Z,25.50
2022-08-21T18:51:30.637Z,25.50
2022-08-21T18:53:57.577Z,25.40
2022-08-21T18:56:25.064Z,25.40
2022-08-21T18:58:58.203Z,25.40
2022-08-21T19:01:25.985Z,25.30
2022-08-21T19:03:52.952Z,25.40
2022-08-21T19:06:20.066Z,25.30
2022-08-21T19:08:47.165Z,25.30
2022-08-21T19:11:15.400Z,25.30
2022-08-21T19:13:53.060Z,25.30
2022-08-21T19:16:21.918Z,25.20
2022-08-21T19:18:49.913Z,25.20
2022-08-21T19:21:17.251Z,25.20
2022-08-21T19:23:52.547Z,25.20
2022-08-21T19:26:22.890Z,25.20
2022-08-21T19:28:59.552Z,25.20
2022-08-21T19:31:33.515Z,25.20
2022-08-21T19:34:28.250Z,25.10
2022-08-21T19:36:59.323Z,25.10
2022-08-21T19:39:27.379Z,25.10
2022-08-21T19:41:58.321Z,25.10
2022-08-21T19:44:29.421Z,25.10
2022-08-21T19:46:59.987Z,25.00
2022-08-21T19:49:34.421Z,25.00
2022-08-21T19:52:02.258Z,25.00
2022-08-21T19:54:40.606Z,25.00
2022-08-21T19:57:11.268Z,25.00
2022-08-21T19:59:40.491Z,25.00
2022-08-21T20:02:09.524Z,24.90
2022-08-21T20:04:37.103Z,24.90
2022-08-21T20:07:08.235Z,24.90
2022-08-21T20:09:37.072Z,24.90
2022-08-21T20:12:10.338Z,24.90
2022-08-21T20:14:43.965Z,24.80
2022-08-21T20:17:13.959Z,24.80
2022-08-21T20:19:43.219Z,24.80
2022-08-21T20:22:12.151Z,24.80
2022-08-21T20:24:41.934Z,24.70
2022-08-21T20:27:13.779Z,24.80
2022-08-21T20:29:42.812Z,24.70
2022-08-21T20:34:59.061Z,24.70
2022-08-21T20:37:45.260Z,24.60
2022-08-21T20:40:32.074Z,24.60
2022-08-21T20:43:00.817Z,24.60
2022-08-21T20:45:31.379Z,24.60
2022-08-21T20:48:11.400Z,24.60
2022-08-21T20:50:48.512Z,24.60
2022-08-21T20:53:43.834Z,24.50
2022-08-21T20:56:48.419Z,24.50
2022-08-21T20:59:33.966Z,24.50
2022-08-21T21:02:07.924Z,24.50
2022-08-21T21:04:51.560Z,24.40
2022-08-21T21:07:41.423Z,24.50
2022-08-21T21:10:16.324Z,24.40
2022-08-21T21:12:53.336Z,24.40
2022-08-21T21:15:31.497Z,24.40
2022-08-21T21:18:33.098Z,24.40
2022-08-21T21:21:32.972Z,24.20
2022-08-21T21:24:09.775Z,23.90
2022-08-21T21:27:02.319Z,23.80
2022-08-21T21:29:41.777Z,23.60
2022-08-21T21:32:09.212Z,23.50
2022-08-21T21:34:47.460Z,23.50
2022-08-21T21:37:39.652Z,23.40
2022-08-21T21:40:41.951Z,23.40
2022-08-21T21:43:29.902Z,23.30
2022-08-21T21:46:17.325Z,23.20
2022-08-21T21:49:02.524Z,23.20
2022-08-21T21:55:05.378Z,23.10
2022-08-21T21:57:58.089Z,23.00
2022-08-21T22:00:27.972Z,23.00
2022-08-21T22:02:58.710Z,23.00
2022-08-21T22:05:56.152Z,23.10
2022-08-21T22:08:24.390Z,23.20
2022-08-21T22:11:08.929Z,23.20
2022-08-21T22:14:10.843Z,23.20
2022-08-21T22:16:38.525Z,23.30
2022-08-21T22:19:29.411Z,23.30
2022-08-21T22:22:06.485Z,23.30
2022-08-21T22:24:41.602Z,23.30
2022-08-21T22:27:17.027Z,23.30
2022-08-21T22:29:55.997Z,23.30
2022-08-21T22:32:40.143Z,23.40
2022-08-21T22:35:21.447Z,23.40
2022-08-21T22:41:48.584Z,23.30
2022-08-21T22:44:23.082Z,23.30
2022-08-21T22:46:59.164Z,23.40
2022-08-21T22:49:33.227Z,23.30
2022-08-21T22:52:33.409Z,23.30
2022-08-21T22:55:17.486Z,23.30
2022-08-21T22:57:46.048Z,23.30
2022-08-21T23:00:39.173Z,23.30
2022-08-21T23:03:17.261Z,23.30
2022-08-21T23:05:47.981Z,23.20
2022-08-21T23:08:31.648Z,23.20
2022-08-21T23:11:04.092Z,23.20
2022-08-21T23:14:04.103Z,23.20
2022-08-21T23:16:52.997Z,23.20
2022-08-21T23:19:26.859Z,23.20
2022-08-21T23:22:21.864Z,23.20
2022-08-21T23:25:26.912Z,23.20
2022-08-21T23:28:13.579Z,23.10
2022-08-21T23:31:03.997Z,23.10
2022-08-21T23:33:59.024Z,23.10
2022-08-21T23:37:14.074Z,23.10
2022-08-21T23:40:18.362Z,23.10
2022-08-21T23:43:00.590Z,23.10
2022-08-21T23:46:00.101Z,23.10
2022-08-21T23:48:50.093Z,23.00
2022-08-21T23:51:33.801Z,23.00
2022-08-21T23:54:17.334Z,23.00
2022-08-21T23:57:08.247Z,23.00
